Terminal Aerodrome Forecast
Issued by NWS

Home | Current Version | Previous Version | Text Only | Print | Product List | Glossary On
Versions: 1 2 3 4 5 6 7 8 9 10 11 12 13 14 15
000
FTUS43 KFGF 211700
TAFTVF
TAF
KTVF 211731Z 2118/2218 17015KT 2SM BR OVC004
     FM212100 17012KT P6SM OVC007
     FM220200 13008KT 5SM BR OVC003
     FM221300 08009KT 1SM BR OVC003
      AMD LTD TO CLD VIS AND WIND=

USA.gov is the U.S. government's official web portal to all federal, state and local government web resources and services.